Time;durP1;ratioP1;P1;durP2;ratioP2;P2;SDS_P1;SDS_P2;PMS_P1;PMS_P2;Temp;Humidity;BMP_temperature;BMP_pressure;BME280_temperature;BME280_humidity;BME280_pressure;Samples;Min_cycle;Max_cycle;Signal;HPM_P1;HPM_P2
2022/03/01 00:00:37;;;;;;;;;59.67;45.00;;;;;5.81;100.00;102331.38;4929967;28;44734;-85
2022/03/01 00:03:02;;;;;;;;;59.00;50.00;;;;;5.78;100.00;102326.16;4930163;28;44785;-85
2022/03/01 00:05:27;;;;;;;;;53.67;44.67;;;;;5.77;100.00;102313.03;4947521;28;44724;-86
2022/03/01 00:07:53;;;;;;;;;56.67;44.00;;;;;5.77;100.00;102310.38;4946448;28;45241;-85
2022/03/01 00:10:18;;;;;;;;;57.33;42.67;;;;;5.76;100.00;102320.06;4943390;28;44716;-85
2022/03/01 00:12:44;;;;;;;;;60.00;44.67;;;;;5.73;100.00;102312.22;4946331;28;44724;-85
2022/03/01 00:15:09;;;;;;;;;61.33;48.00;;;;;5.70;100.00;102314.91;4945980;28;45319;-86
2022/03/01 00:17:35;;;;;;;;;54.67;46.00;;;;;5.69;100.00;102313.19;4943031;28;46921;-85
2022/03/01 00:20:01;;;;;;;;;58.00;44.00;;;;;5.65;100.00;102319.41;4954757;28;44777;-83
2022/03/01 00:22:26;;;;;;;;;50.33;43.33;;;;;5.63;100.00;102316.81;4957322;28;44724;-83
2022/03/01 00:24:52;;;;;;;;;58.67;45.00;;;;;5.61;100.00;102317.75;4956693;28;44850;-84
2022/03/01 00:27:17;;;;;;;;;59.00;46.00;;;;;5.57;100.00;102311.69;4955032;28;44904;-83
2022/03/01 00:29:43;;;;;;;;;64.00;46.00;;;;;5.56;100.00;102311.69;4954653;28;44779;-85
2022/03/01 00:32:09;;;;;;;;;60.67;45.67;;;;;5.52;100.00;102308.28;4947151;28;45031;-85
2022/03/01 00:34:35;;;;;;;;;61.33;46.67;;;;;5.47;100.00;102310.13;4927125;28;44790;-85
2022/03/01 00:37:00;;;;;;;;;60.00;47.00;;;;;5.44;100.00;102297.00;4923576;28;46719;-85
2022/03/01 00:39:26;;;;;;;;;60.00;48.33;;;;;5.40;100.00;102297.97;4941028;28;44756;-84
2022/03/01 00:41:51;;;;;;;;;59.67;47.33;;;;;5.36;100.00;102291.88;4940363;28;45264;-86
2022/03/01 00:44:16;;;;;;;;;60.67;48.33;;;;;5.33;100.00;102301.63;4942192;28;45192;-84
2022/03/01 00:46:42;;;;;;;;;58.33;47.67;;;;;5.29;100.00;102300.81;4948682;28;44971;-84
2022/03/01 00:49:07;;;;;;;;;58.67;48.00;;;;;5.27;100.00;102291.19;4948862;28;44860;-85
2022/03/01 00:51:33;;;;;;;;;64.00;48.00;;;;;5.24;100.00;102296.53;4950824;28;44728;-84
2022/03/01 00:53:58;;;;;;;;;58.33;44.67;;;;;5.19;100.00;102304.53;4937883;28;44993;-84
2022/03/01 00:56:24;;;;;;;;;67.33;49.67;;;;;5.15;100.00;102301.09;4952192;28;46979;-84
2022/03/01 00:58:49;;;;;;;;;61.67;48.67;;;;;5.15;100.00;102302.84;4948133;28;45543;-83
2022/03/01 01:01:15;;;;;;;;;62.00;49.33;;;;;5.12;100.00;102309.03;4949015;28;45225;-83
2022/03/01 01:03:41;;;;;;;;;67.00;51.00;;;;;5.12;100.00;102310.81;4948439;28;44717;-85
2022/03/01 01:06:06;;;;;;;;;58.67;49.00;;;;;5.11;100.00;102314.34;4946932;28;45365;-84
2022/03/01 01:08:31;;;;;;;;;56.33;45.33;;;;;5.09;100.00;102317.03;4928102;28;45460;-84
2022/03/01 01:10:57;;;;;;;;;65.33;52.67;;;;;5.06;100.00;102313.56;4945200;28;45380;-85
2022/03/01 01:13:22;;;;;;;;;63.67;50.33;;;;;5.07;100.00;102310.03;4945561;28;44814;-86
2022/03/01 01:15:48;;;;;;;;;60.33;47.33;;;;;5.06;100.00;102306.53;4945432;28;45105;-84
2022/03/01 01:18:14;;;;;;;;;66.67;51.33;;;;;5.06;100.00;102300.41;4945095;28;44821;-84
2022/03/01 01:20:39;;;;;;;;;65.67;51.67;;;;;5.04;100.00;102303.06;4945460;28;44760;-85
2022/03/01 01:23:05;;;;;;;;;62.67;49.00;;;;;5.00;100.00;102289.97;4929344;28;44996;-85
2022/03/01 01:25:32;;;;;;;;;67.00;51.33;;;;;4.96;100.00;102288.31;4951005;28;45467;-84
2022/03/01 01:27:59;;;;;;;;;69.33;49.33;;;;;4.92;100.00;102297.16;4950223;28;45179;-84
2022/03/01 01:30:31;;;;;;;;;62.33;50.00;;;;;4.89;100.00;102287.56;4944920;28;44764;-84
2022/03/01 01:32:58;;;;;;;;;63.67;50.33;;;;;4.84;100.00;102292.03;4948916;28;44770;-84
2022/03/01 01:35:26;;;;;;;;;65.33;50.33;;;;;4.83;100.00;102291.13;4944913;28;45293;-84
2022/03/01 01:37:53;;;;;;;;;64.33;51.33;;;;;4.82;100.00;102288.53;4944800;28;45414;-85
2022/03/01 01:40:22;;;;;;;;;66.00;51.33;;;;;4.82;100.00;102288.53;4944972;28;45343;-84
2022/03/01 01:42:48;;;;;;;;;72.67;54.00;;;;;4.80;100.00;102287.72;4946124;28;45461;-84
2022/03/01 01:45:13;;;;;;;;;65.33;51.67;;;;;4.79;100.00;102289.50;4944601;28;46336;-83
2022/03/01 01:47:39;;;;;;;;;63.33;51.00;;;;;4.79;100.00;102286.84;4927638;28;45435;-85
2022/03/01 01:50:07;;;;;;;;;58.00;48.00;;;;;4.78;100.00;102287.72;4949998;28;44783;-83
2022/03/01 01:52:32;;;;;;;;;58.67;50.67;;;;;4.78;100.00;102281.59;4940383;28;44849;-84
2022/03/01 01:54:58;;;;;;;;;71.33;51.33;;;;;4.77;100.00;102287.75;4949361;28;45376;-85
2022/03/01 01:57:24;;;;;;;;;69.00;52.67;;;;;4.74;100.00;102287.81;4954824;28;45323;-84
2022/03/01 01:59:52;;;;;;;;;75.00;56.33;;;;;4.74;100.00;102290.44;4947471;28;44879;-83
2022/03/01 02:02:20;;;;;;;;;72.00;54.00;;;;;4.73;100.00;102296.59;4961900;28;44915;-84
2022/03/01 02:04:45;;;;;;;;;63.67;51.67;;;;;4.72;100.00;102298.38;4961914;28;45065;-84
2022/03/01 02:07:12;;;;;;;;;68.67;52.67;;;;;4.71;100.00;102295.78;4961930;28;44744;-84
2022/03/01 02:09:38;;;;;;;;;59.33;50.33;;;;;4.72;100.00;102298.38;4963025;28;44701;-85
2022/03/01 02:12:05;;;;;;;;;71.33;51.33;;;;;4.73;100.00;102294.84;4962025;28;45272;-83
2022/03/01 02:14:31;;;;;;;;;62.33;51.33;;;;;4.76;100.00;102304.47;4964314;28;45240;-83
2022/03/01 02:17:03;;;;;;;;;69.00;53.67;;;;;4.73;100.00;102286.94;4964228;28;44740;-85
2022/03/01 02:19:28;;;;;;;;;63.00;49.67;;;;;4.76;100.00;102297.44;4962976;28;44834;-84
2022/03/01 02:21:55;;;;;;;;;65.00;51.00;;;;;4.77;100.00;102295.66;4961728;28;44794;-84
2022/03/01 02:24:22;;;;;;;;;64.33;49.00;;;;;4.76;100.00;102288.66;4962559;28;44979;-84
2022/03/01 02:26:48;;;;;;;;;61.33;49.00;;;;;4.76;100.00;102297.44;4946056;28;44767;-84
2022/03/01 02:29:14;;;;;;;;;69.67;51.67;;;;;4.73;100.00;102291.34;4968237;28;44758;-84
2022/03/01 02:31:40;;;;;;;;;66.00;49.00;;;;;4.70;100.00;102283.53;4971031;28;44810;-83
2022/03/01 02:34:05;;;;;;;;;72.67;53.00;;;;;4.67;100.00;102287.06;4957127;28;46820;-84
2022/03/01 02:36:31;;;;;;;;;65.67;51.33;;;;;4.67;100.00;102291.47;4964109;28;45346;-84
2022/03/01 02:38:57;;;;;;;;;71.00;53.00;;;;;4.63;100.00;102285.38;4945622;28;45179;-85
2022/03/01 02:41:24;;;;;;;;;72.00;53.25;;;;;4.62;100.00;102289.78;4961888;28;44943;-84
2022/03/01 02:43:50;;;;;;;;;68.33;52.67;;;;;4.60;100.00;102282.81;4961282;28;45107;-83
2022/03/01 02:46:15;;;;;;;;;69.33;54.33;;;;;4.59;100.00;102289.84;4960801;28;44790;-85
2022/03/01 02:48:42;;;;;;;;;68.00;52.50;;;;;4.59;100.00;102294.22;4961403;28;45919;-85
2022/03/01 02:51:07;;;;;;;;;65.50;53.00;;;;;4.59;100.00;102294.22;4960814;28;44980;-83
2022/03/01 02:53:34;;;;;;;;;68.75;52.50;;;;;4.60;100.00;102285.44;4959660;28;44887;-83
2022/03/01 02:55:59;;;;;;;;;69.00;49.67;;;;;4.63;100.00;102290.63;4959596;28;44759;-83
2022/03/01 02:58:25;;;;;;;;;67.00;50.00;;;;;4.66;100.00;102289.72;4959750;28;45342;-84
2022/03/01 03:00:51;;;;;;;;;68.67;51.00;;;;;4.66;100.00;102289.72;4961168;28;44770;-85
2022/03/01 03:03:16;;;;;;;;;66.00;51.33;;;;;4.68;100.00;102296.69;4962379;28;45173;-85
2022/03/01 03:05:41;;;;;;;;;62.67;50.00;;;;;4.68;100.00;102293.19;4962398;28;44782;-84
2022/03/01 03:08:07;;;;;;;;;65.33;50.00;;;;;4.68;100.00;102304.59;4961701;28;45219;-85
2022/03/01 03:10:33;;;;;;;;;70.00;51.00;;;;;4.70;100.00;102305.44;4942769;28;44857;-84
2022/03/01 03:13:03;;;;;;;;;62.33;47.67;;;;;4.73;100.00;102304.50;4960025;28;45410;-84
2022/03/01 03:15:28;;;;;;;;;65.67;51.67;;;;;4.76;100.00;102300.06;4959784;28;44728;-84
2022/03/01 03:17:54;;;;;;;;;61.67;51.67;;;;;4.77;100.00;102301.78;4960493;28;45157;-83
2022/03/01 03:20:21;;;;;;;;;71.00;50.67;;;;;4.80;100.00;102296.47;4960682;28;44893;-82
2022/03/01 03:22:46;;;;;;;;;64.67;51.00;;;;;4.82;100.00;102301.72;4961554;28;45255;-83
2022/03/01 03:25:12;;;;;;;;;66.00;50.67;;;;;4.83;100.00;102300.81;4962028;28;44824;-84
2022/03/01 03:27:38;;;;;;;;;62.67;49.67;;;;;4.83;100.00;102298.19;4962510;28;44835;-84
2022/03/01 03:30:05;;;;;;;;;63.00;48.33;;;;;4.81;100.00;102295.59;4962882;28;45521;-85
2022/03/01 03:32:32;;;;;;;;;63.67;51.00;;;;;4.80;100.00;102291.22;4948206;28;46885;-85
2022/03/01 03:34:59;;;;;;;;;66.33;51.00;;;;;4.80;100.00;102287.72;4966814;28;44719;-85
2022/03/01 03:37:24;;;;;;;;;65.00;50.33;;;;;4.80;100.00;102288.59;4963845;28;44733;-84
2022/03/01 03:39:49;;;;;;;;;66.33;53.67;;;;;4.81;100.00;102299.97;4962124;28;45306;-83
2022/03/01 03:42:15;;;;;;;;;57.00;47.67;;;;;4.81;100.00;102298.22;4946152;28;46559;-84
2022/03/01 03:44:40;;;;;;;;;58.00;47.67;;;;;4.80;100.00;102290.34;4943637;28;44832;-85
2022/03/01 03:47:07;;;;;;;;;64.00;49.67;;;;;4.80;100.00;102291.22;4960426;28;44798;-84
2022/03/01 03:49:32;;;;;;;;;61.67;50.33;;;;;4.82;100.00;102289.41;4941977;28;45402;-85
2022/03/01 03:51:59;;;;;;;;;59.00;49.00;;;;;4.82;100.00;102284.16;4959418;28;45394;-83
2022/03/01 03:54:24;;;;;;;;;58.00;47.67;;;;;4.83;100.00;102279.75;4959246;28;44775;-85
2022/03/01 03:56:50;;;;;;;;;61.00;49.00;;;;;4.82;100.00;102284.16;4938127;28;44779;-84
2022/03/01 03:59:15;;;;;;;;;64.00;48.67;;;;;4.82;100.00;102284.16;4940135;28;45344;-83
2022/03/01 04:01:41;;;;;;;;;64.33;49.00;;;;;4.82;100.00;102289.41;4922628;28;45271;-83
2022/03/01 04:04:08;;;;;;;;;62.33;50.33;;;;;4.82;100.00;102278.00;4921853;28;45437;-84
2022/03/01 04:06:33;;;;;;;;;60.67;48.67;;;;;4.83;100.00;102293.78;4939624;28;45240;-84
2022/03/01 04:08:59;;;;;;;;;63.33;50.33;;;;;4.83;100.00;102285.00;4940004;28;44713;-83
2022/03/01 04:11:25;;;;;;;;;66.67;51.33;;;;;4.84;100.00;102281.50;4924013;28;45420;-83
2022/03/01 04:13:52;;;;;;;;;64.00;51.00;;;;;4.83;100.00;102277.13;4947932;28;44591;-84
2022/03/01 04:16:18;;;;;;;;;62.33;50.00;;;;;4.85;100.00;102270.06;4947242;28;44739;-84
2022/03/01 04:18:43;;;;;;;;;62.67;49.33;;;;;4.85;100.00;102273.56;4943038;28;45400;-84
2022/03/01 04:21:10;;;;;;;;;63.00;48.00;;;;;4.86;100.00;102271.81;4942423;28;45390;-84
2022/03/01 04:23:36;;;;;;;;;65.33;48.33;;;;;4.85;100.00;102267.44;4924131;28;44720;-84
2022/03/01 04:26:02;;;;;;;;;62.33;48.33;;;;;4.81;100.00;102266.63;4941235;28;44732;-84
2022/03/01 04:28:27;;;;;;;;;61.67;48.67;;;;;4.82;100.00;102267.47;4942146;28;44991;-84
2022/03/01 04:30:53;;;;;;;;;61.67;45.00;;;;;4.80;100.00;102257.00;4943389;28;45277;-85
2022/03/01 04:33:18;;;;;;;;;65.67;51.00;;;;;4.81;100.00;102268.38;4943416;28;45324;-84
2022/03/01 04:35:44;;;;;;;;;67.00;52.33;;;;;4.80;100.00;102266.66;4942105;28;45363;-83
2022/03/01 04:38:09;;;;;;;;;57.67;42.67;;;;;4.80;100.00;102271.94;4940770;28;44780;-84
2022/03/01 04:40:35;;;;;;;;;62.50;49.00;;;;;4.80;100.00;102279.81;4925628;28;45567;-84
2022/03/01 04:43:00;;;;;;;;;61.67;47.33;;;;;4.84;100.00;102269.22;4943939;28;44843;-84
2022/03/01 04:45:25;;;;;;;;;65.67;49.33;;;;;4.88;100.00;102280.53;4928133;28;44804;-83
2022/03/01 04:47:51;;;;;;;;;57.67;48.33;;;;;4.93;100.00;102277.81;4945123;28;45431;-83
2022/03/01 04:50:16;;;;;;;;;62.67;52.00;;;;;4.95;100.00;102278.66;4942142;28;45379;-83
2022/03/01 04:52:42;;;;;;;;;61.00;47.00;;;;;4.98;100.00;102273.31;4947066;28;44784;-85
2022/03/01 04:55:08;;;;;;;;;62.67;50.33;;;;;5.02;100.00;102278.50;4950367;28;44824;-83
2022/03/01 04:57:33;;;;;;;;;59.00;47.00;;;;;5.04;100.00;102268.81;4952095;28;44841;-84
2022/03/01 04:59:59;;;;;;;;;65.00;51.00;;;;;5.08;100.00;102278.41;4961284;28;45287;-84
2022/03/01 05:02:24;;;;;;;;;63.33;49.00;;;;;5.13;100.00;102284.47;4943415;28;45344;-85
2022/03/01 05:04:50;;;;;;;;;59.67;49.33;;;;;5.16;100.00;102283.50;4958975;28;45224;-84
2022/03/01 05:07:18;;;;;;;;;60.67;47.00;;;;;5.16;100.00;102273.84;4958815;28;45382;-84
2022/03/01 05:09:43;;;;;;;;;60.00;48.00;;;;;5.20;100.00;102271.16;4958388;28;45317;-85
2022/03/01 05:12:09;;;;;;;;;62.00;50.00;;;;;5.25;100.00;102274.56;4956654;28;45329;-84
2022/03/01 05:14:34;;;;;;;;;58.33;49.00;;;;;5.27;100.00;102275.38;4959136;28;45314;-84
2022/03/01 05:17:00;;;;;;;;;61.33;49.00;;;;;5.31;100.00;102269.16;4958432;28;44816;-84
2022/03/01 05:19:25;;;;;;;;;59.67;47.33;;;;;5.33;100.00;102260.34;4941255;28;45363;-83
2022/03/01 05:21:51;;;;;;;;;67.67;52.00;;;;;5.36;100.00;102249.72;4958970;28;45252;-84
2022/03/01 05:24:16;;;;;;;;;67.33;49.33;;;;;5.34;100.00;102255.94;4959549;28;45363;-83
2022/03/01 05:26:42;;;;;;;;;60.00;47.33;;;;;5.32;100.00;102268.28;4958987;28;45663;-84
2022/03/01 05:29:07;;;;;;;;;60.67;48.67;;;;;5.31;100.00;102267.41;4963860;28;45036;-84
2022/03/01 05:31:34;;;;;;;;;60.67;50.00;;;;;5.31;100.00;102262.13;4966982;28;44800;-84
2022/03/01 05:33:59;;;;;;;;;68.33;52.33;;;;;5.31;100.00;102262.13;4964934;28;44740;-84
2022/03/01 05:36:25;;;;;;;;;62.00;48.33;;;;;5.30;100.00;102256.91;4962036;28;45528;-83
2022/03/01 05:38:50;;;;;;;;;64.33;47.00;;;;;5.29;100.00;102265.72;4961548;28;45377;-85
2022/03/01 05:41:17;;;;;;;;;57.33;47.00;;;;;5.27;100.00;102265.75;4961757;28;45516;-84
2022/03/01 05:43:43;;;;;;;;;58.33;48.33;;;;;5.27;100.00;102263.13;4961879;28;45381;-85
2022/03/01 05:46:08;;;;;;;;;54.33;45.67;;;;;5.29;100.00;102260.44;4961476;28;44876;-84
2022/03/01 05:48:33;;;;;;;;;61.33;46.67;;;;;5.30;100.00;102272.72;4960791;28;45221;-86
2022/03/01 05:51:01;;;;;;;;;61.00;49.33;;;;;5.30;100.00;102267.44;4960874;28;45786;-84
2022/03/01 05:53:26;;;;;;;;;57.67;44.00;;;;;5.33;100.00;102272.66;4962090;28;45072;-86
2022/03/01 05:55:52;;;;;;;;;62.67;49.00;;;;;5.33;100.00;102262.97;4961762;28;44787;-84
2022/03/01 05:58:17;;;;;;;;;52.33;44.33;;;;;5.35;100.00;102255.91;4945629;28;45623;-85
2022/03/01 06:00:43;;;;;;;;;58.00;48.67;;;;;5.36;100.00;102257.63;4942939;28;45406;-85
2022/03/01 06:03:08;;;;;;;;;62.00;47.33;;;;;5.37;100.00;102255.88;4942630;28;45396;-85
2022/03/01 06:05:35;;;;;;;;;61.33;50.33;;;;;5.34;100.00;102248.91;4943043;28;45437;-84
2022/03/01 06:08:01;;;;;;;;;56.67;47.00;;;;;5.36;100.00;102246.22;4928496;28;46635;-86
2022/03/01 06:10:27;;;;;;;;;65.67;47.67;;;;;5.36;100.00;102243.59;4928759;28;44803;-86
2022/03/01 06:12:52;;;;;;;;;59.33;48.00;;;;;5.37;100.00;102259.38;4925636;28;45195;-84
2022/03/01 06:15:18;;;;;;;;;63.67;47.00;;;;;5.37;100.00;102247.97;4942210;28;45218;-85
2022/03/01 06:17:44;;;;;;;;;62.00;48.33;;;;;5.39;100.00;102257.56;4943383;28;45375;-85
2022/03/01 06:20:10;;;;;;;;;58.00;44.67;;;;;5.41;100.00;102262.81;4944082;28;44720;-85
2022/03/01 06:22:36;;;;;;;;;55.67;45.00;;;;;5.43;100.00;102265.44;4945927;28;45227;-84
2022/03/01 06:25:03;;;;;;;;;55.67;44.67;;;;;5.43;100.00;102268.94;4946647;28;45514;-86
2022/03/01 06:27:29;;;;;;;;;54.33;43.00;;;;;5.45;100.00;102258.34;4948649;28;45387;-84
2022/03/01 06:29:54;;;;;;;;;54.00;43.67;;;;;5.46;100.00;102258.31;4947022;28;44749;-85
2022/03/01 06:32:20;;;;;;;;;59.00;47.00;;;;;5.49;100.00;102260.03;4948296;28;45181;-85
2022/03/01 06:34:46;;;;;;;;;52.67;43.33;;;;;5.49;100.00;102268.78;4929791;28;44892;-83
2022/03/01 06:37:13;;;;;;;;;55.67;44.67;;;;;5.53;100.00;102274.88;4932745;28;45421;-85
2022/03/01 06:39:44;;;;;;;;;59.00;46.00;;;;;5.55;100.00;102278.34;4951790;28;44827;-85
2022/03/01 06:42:11;;;;;;;;;58.67;41.33;;;;;5.59;100.00;102290.56;4951122;28;44728;-85
2022/03/01 06:44:37;;;;;;;;;56.67;42.33;;;;;5.62;100.00;102278.19;4946684;28;44823;-86
2022/03/01 06:47:04;;;;;;;;;57.00;42.33;;;;;5.65;100.00;102280.72;4947758;28;44990;-85
2022/03/01 06:49:29;;;;;;;;;54.33;43.67;;;;;5.68;100.00;102283.31;4947648;28;45451;-87
2022/03/01 06:51:55;;;;;;;;;60.67;45.67;;;;;5.68;100.00;102288.59;4941917;28;45291;-86
2022/03/01 06:54:20;;;;;;;;;57.00;43.00;;;;;5.71;100.00;102282.41;4941621;28;44816;-86
2022/03/01 06:56:47;;;;;;;;;54.67;42.67;;;;;5.78;100.00;102286.63;4941607;28;45208;-87
2022/03/01 06:59:13;;;;;;;;;59.67;44.67;;;;;5.83;100.00;102292.66;4946382;28;44780;-86
2022/03/01 07:01:38;;;;;;;;;59.00;41.67;;;;;5.89;100.00;102299.56;4948943;28;44705;-87
2022/03/01 07:04:04;;;;;;;;;50.67;40.00;;;;;5.93;100.00;102302.13;4947786;28;45463;-84
2022/03/01 07:06:29;;;;;;;;;58.67;44.00;;;;;5.96;100.00;102302.97;4929157;28;45337;-85
2022/03/01 07:08:55;;;;;;;;;51.33;40.00;;;;;5.97;100.00;102296.78;4943002;28;45621;-85
2022/03/01 07:11:22;;;;;;;;;49.33;35.00;;;;;6.01;100.00;102298.47;4943405;28;44695;-85
2022/03/01 07:13:47;;;;;;;;;56.33;44.33;;;;;6.02;100.00;102306.34;4923870;28;45542;-86
2022/03/01 07:16:13;;;;;;;;;40.33;37.33;;;;;5.99;100.00;102306.38;4924210;28;46872;-86
2022/03/01 07:18:38;;;;;;;;;51.00;42.00;;;;;5.96;100.00;102321.44;4941037;28;44808;-86
2022/03/01 07:21:04;;;;;;;;;46.33;37.67;;;;;5.96;100.00;102322.31;4940124;28;44882;-87
2022/03/01 07:23:29;;;;;;;;;58.33;45.00;;;;;6.02;100.00;102308.97;4942641;28;44784;-84
2022/03/01 07:25:55;;;;;;;;;57.33;43.00;;;;;6.06;100.00;102317.69;4943362;28;45460;-85
2022/03/01 07:28:21;;;;;;;;;54.67;43.00;;;;;6.11;100.00;102318.44;4946425;28;44823;-86
2022/03/01 07:30:46;;;;;;;;;53.00;44.00;;;;;6.17;100.00;102315.66;4942288;28;44931;-85
2022/03/01 07:33:12;;;;;;;;;56.33;44.67;;;;;6.25;100.00;102319.00;4943051;28;45503;-86
2022/03/01 07:35:37;;;;;;;;;53.67;42.00;;;;;6.34;100.00;102312.66;4943054;28;45102;-87
2022/03/01 07:38:03;;;;;;;;;60.00;44.00;;;;;6.41;100.00;102309.81;4953251;28;45520;-86
2022/03/01 07:40:28;;;;;;;;;51.67;41.67;;;;;6.52;100.00;102312.16;4953493;28;45302;-86
2022/03/01 07:42:54;;;;;;;;;58.50;43.50;;;;;6.60;100.00;102312.84;4946790;28;44817;-84
2022/03/01 07:45:20;;;;;;;;;55.67;42.67;;;;;6.68;100.00;102313.53;4942919;28;45391;-85
2022/03/01 07:47:46;;;;;;;;;48.33;40.00;;;;;6.77;100.00;102317.72;4924355;28;44899;-86
2022/03/01 07:50:11;;;;;;;;;55.67;42.00;;;;;6.86;100.00;102308.69;4941244;28;44708;-85
2022/03/01 07:52:37;;;;;;;;;60.67;44.00;;;;;6.95;100.00;102304.00;4938784;28;45667;-86
2022/03/01 07:55:03;;;;;;;;;48.33;39.00;;;;;7.07;100.00;102304.63;4938449;28;46514;-85
2022/03/01 07:57:29;;;;;;;;;53.00;41.00;;;;;7.14;100.00;102306.16;4950659;28;44834;-86
2022/03/01 07:59:54;;;;;;;;;52.67;39.33;;;;;7.19;100.00;102302.47;4958427;28;45301;-86
2022/03/01 08:02:20;;;;;;;;;55.00;43.00;;;;;7.28;100.00;102306.66;4960588;28;44824;-85
2022/03/01 08:04:45;;;;;;;;;47.67;41.33;;;;;7.35;100.00;102308.22;4961643;28;45318;-86
2022/03/01 08:07:12;;;;;;;;;57.00;44.33;;;;;7.42;100.00;102307.13;4963817;28;44679;-87
2022/03/01 08:09:39;;;;;;;;;52.00;40.67;;;;;7.51;100.00;102307.78;4965388;28;44769;-86
2022/03/01 08:12:06;;;;;;;;;57.00;43.67;;;;;7.62;100.00;102316.25;4963344;28;45282;-86
2022/03/01 08:14:33;;;;;;;;;59.67;45.00;;;;;7.77;100.00;102322.88;4961708;28;45405;-86
2022/03/01 08:17:00;;;;;;;;;53.00;42.00;;;;;7.90;100.00;102318.97;4961487;28;44874;-88
2022/03/01 08:19:26;;;;;;;;;56.33;43.33;;;;;8.01;100.00;102321.28;4943243;28;45225;-86
2022/03/01 08:21:52;;;;;;;;;57.67;44.00;;;;;8.09;100.00;102324.56;4965998;28;45466;-85
2022/03/01 08:24:18;;;;;;;;;54.67;44.00;;;;;8.15;100.00;102322.56;4970149;28;45193;-85
2022/03/01 08:26:43;;;;;;;;;52.00;43.00;;;;;8.20;100.00;102319.78;4970780;28;44713;-84
2022/03/01 08:29:09;;;;;;;;;51.33;42.00;;;;;8.25;100.00;102315.22;4972040;28;44760;-85
2022/03/01 08:31:36;;;;;;;;;52.67;43.33;;;;;8.24;100.00;102322.28;4970528;28;44837;-86
2022/03/01 08:34:02;;;;;;;;;56.33;46.00;;;;;8.24;100.00;102314.34;4971575;28;45042;-85
2022/03/01 08:36:27;;;;;;;;;53.67;44.67;;;;;8.24;100.00;102314.34;4969590;28;45269;-85
2022/03/01 08:38:53;;;;;;;;;52.00;44.33;;;;;8.25;100.00;102317.84;4968862;28;45214;-85
2022/03/01 08:41:18;;;;;;;;;56.33;43.00;;;;;8.28;100.00;102312.47;4968501;28;44839;-85
2022/03/01 08:43:44;;;;;;;;;56.33;43.00;;;;;8.35;100.00;102316.66;4968204;28;45068;-86
2022/03/01 08:46:12;;;;;;;;;60.67;47.00;;;;;8.41;100.00;102313.84;4970669;28;45099;-85
2022/03/01 08:48:38;;;;;;;;;57.67;45.67;;;;;8.48;100.00;102310.06;4969788;28;44818;-86
2022/03/01 08:51:04;;;;;;;;;60.33;47.00;;;;;8.55;100.00;102309.88;4972926;28;44799;-85
2022/03/01 08:53:29;;;;;;;;;56.00;46.00;;;;;8.64;100.00;102313.06;4948359;28;46902;-86
2022/03/01 08:55:55;;;;;;;;;56.33;46.33;;;;;8.75;100.00;102315.34;4943073;28;44895;-84
2022/03/01 08:58:20;;;;;;;;;60.33;46.00;;;;;8.86;100.00;102317.66;4931798;28;45044;-85
2022/03/01 09:00:46;;;;;;;;;68.00;50.00;;;;;9.00;100.00;102315.41;4949170;28;44911;-86
2022/03/01 09:03:12;;;;;;;;;61.00;46.33;;;;;9.13;100.00;102314.03;4944659;28;45175;-85
2022/03/01 09:05:37;;;;;;;;;59.00;47.33;;;;;9.24;100.00;102319.84;4924346;28;45201;-86
2022/03/01 09:08:04;;;;;;;;;60.50;46.50;;;;;9.29;100.00;102321.47;4926849;28;44823;-86
2022/03/01 09:10:30;;;;;;;;;57.67;46.67;;;;;9.39;100.00;102323.72;4927988;28;45255;-86
2022/03/01 09:12:57;;;;;;;;;52.33;41.33;;;;;9.49;100.00;102327.75;4942742;28;45092;-87
2022/03/01 09:15:25;;;;;;;;;59.67;46.00;;;;;9.60;100.00;102334.44;4943250;28;44792;-86
2022/03/01 09:17:51;;;;;;;;;58.00;45.00;;;;;9.70;100.00;102339.34;4947269;28;44775;-85
2022/03/01 09:20:17;;;;;;;;;61.00;48.67;;;;;9.81;100.00;102330.97;4949539;28;45411;-85
2022/03/01 09:22:42;;;;;;;;;62.33;47.00;;;;;9.91;100.00;102328.84;4948176;28;45224;-86
2022/03/01 09:25:09;;;;;;;;;57.33;47.00;;;;;9.95;100.00;102326.00;4927605;28;44797;-85
2022/03/01 09:27:34;;;;;;;;;60.00;48.33;;;;;10.00;100.00;102328.47;4928998;28;44786;-85
2022/03/01 09:30:00;;;;;;;;;64.00;51.33;;;;;10.10;100.00;102327.19;4931224;28;44923;-85
2022/03/01 09:32:26;;;;;;;;;60.67;48.00;;;;;10.13;100.00;102318.25;4950190;28;45174;-86
2022/03/01 09:34:52;;;;;;;;;61.00;49.00;;;;;10.18;100.00;102319.78;4932062;28;45505;-85
2022/03/01 09:37:18;;;;;;;;;62.67;48.33;;;;;10.19;100.00;102321.53;4935660;28;44760;-86
2022/03/01 09:39:43;;;;;;;;;57.67;46.33;;;;;10.22;100.00;102318.75;4956911;28;45382;-85
2022/03/01 09:42:09;;;;;;;;;52.00;42.33;;;;;10.26;100.00;102312.44;4959929;28;45233;-87
2022/03/01 09:44:35;;;;;;;;;58.33;42.33;;;;;10.38;100.00;102315.50;4963342;28;44708;-85
2022/03/01 09:47:00;;;;;;;;;57.00;44.67;;;;;10.46;100.00;102308.94;4960629;28;45580;-84
2022/03/01 09:49:26;;;;;;;;;52.33;42.33;;;;;10.63;100.00;102310.91;4947455;28;45436;-87
2022/03/01 09:51:52;;;;;;;;;58.67;46.67;;;;;10.81;100.00;102310.13;4946069;28;44872;-86
2022/03/01 09:54:17;;;;;;;;;55.67;43.00;;;;;11.02;100.00;102307.47;4946668;28;44863;-87
2022/03/01 09:56:43;;;;;;;;;58.00;45.33;;;;;11.17;100.00;102301.50;4928293;28;44768;-86
2022/03/01 09:59:09;;;;;;;;;61.33;48.00;;;;;11.28;100.00;102301.88;4943319;28;45185;-86
2022/03/01 10:01:34;;;;;;;;;58.00;44.33;;;;;11.35;99.56;102307.78;4925094;28;46560;-85
2022/03/01 10:04:10;;;;;;;;;55.00;44.33;;;;;11.43;99.71;102312.75;4941438;28;44864;-86
2022/03/01 10:06:43;;;;;;;;;51.67;41.67;;;;;11.46;99.17;102305.50;4943131;28;45287;-86
2022/03/01 10:09:17;;;;;;;;;52.33;41.67;;;;;11.59;99.05;102316.44;4944386;28;45575;-87
2022/03/01 10:11:44;;;;;;;;;53.00;42.00;;;;;11.66;98.13;102317.03;4942821;28;45091;-86
2022/03/01 10:14:10;;;;;;;;;53.33;42.33;;;;;11.67;97.25;102319.63;4948359;28;45299;-87
2022/03/01 10:16:42;;;;;;;;;55.00;44.33;;;;;11.78;97.58;102312.00;4925337;28;44862;-85
2022/03/01 10:19:19;;;;;;;;;51.00;43.00;;;;;12.01;97.17;102313.59;4940026;28;44887;-86
2022/03/01 10:22:03;;;;;;;;;49.00;41.00;;;;;12.21;96.62;102320.63;4943000;28;45075;-87
2022/03/01 10:24:30;;;;;;;;;58.33;45.00;;;;;12.30;94.15;102328.19;4945675;28;45229;-86
2022/03/01 10:27:01;;;;;;;;;54.67;44.00;;;;;12.25;94.28;102327.56;4946063;28;45323;-86
2022/03/01 10:29:28;;;;;;;;;53.67;42.67;;;;;12.26;94.72;102331.06;4947421;28;45247;-86
2022/03/01 10:31:59;;;;;;;;;56.33;46.00;;;;;12.30;94.99;102319.34;4944147;28;45450;-86
2022/03/01 10:34:26;;;;;;;;;56.33;43.33;;;;;12.45;94.68;102320.38;4946235;28;45300;-87
2022/03/01 10:36:52;;;;;;;;;52.67;41.67;;;;;12.73;94.62;102303.88;4947264;28;44792;-87
2022/03/01 10:39:35;;;;;;;;;56.00;43.67;;;;;13.20;93.43;102309.44;4944905;28;45356;-86
2022/03/01 10:42:06;;;;;;;;;56.67;45.67;;;;;13.69;92.53;102306.81;4944067;28;45550;-86
2022/03/01 10:44:31;;;;;;;;;57.67;48.33;;;;;14.06;89.75;102292.25;4943166;28;45273;-87
2022/03/01 10:47:01;;;;;;;;;60.00;44.00;;;;;14.47;90.57;102294.38;4941124;28;45408;-86
2022/03/01 10:49:32;;;;;;;;;69.67;53.33;;;;;14.72;87.39;102293.81;4943650;28;44761;-85
2022/03/01 10:52:06;;;;;;;;;60.33;50.00;;;;;14.88;87.01;102297.28;4943287;28;45331;-86
2022/03/01 10:54:43;;;;;;;;;64.67;48.67;;;;;14.83;86.29;102304.72;4946479;28;44818;-87
2022/03/01 10:57:11;;;;;;;;;63.67;47.67;;;;;14.77;85.93;102304.25;4936657;28;44848;-87
2022/03/01 10:59:39;;;;;;;;;53.33;41.67;;;;;14.64;86.63;102299.59;4943874;28;45143;-86
2022/03/01 11:02:06;;;;;;;;;58.67;45.33;;;;;14.57;87.38;102286.69;4944316;28;45245;-86
2022/03/01 11:04:31;;;;;;;;;58.67;44.33;;;;;14.51;87.47;102293.28;4942213;28;45290;-86